sensor_id;sensor_type;location;lat;lon;timestamp;P1;P2;P0
80289;PMS7003;69592;44.804;-0.550;2023-07-24T00:00:43;8.00;8.00;6.00
80289;PMS7003;69592;44.804;-0.550;2023-07-24T00:03:09;6.00;6.00;5.00
80289;PMS7003;69592;44.804;-0.550;2023-07-24T00:05:34;6.67;6.67;5.00
80289;PMS7003;69592;44.804;-0.550;2023-07-24T00:08:00;7.00;6.67;5.00
80289;PMS7003;69592;44.804;-0.550;2023-07-24T00:10:25;7.00;6.67;5.00
80289;PMS7003;69592;44.804;-0.550;2023-07-24T00:12:50;9.00;7.67;5.00
80289;PMS7003;69592;44.804;-0.550;2023-07-24T00:15:16;8.33;6.33;5.00
80289;PMS7003;69592;44.804;-0.550;2023-07-24T00:17:42;6.00;6.00;4.33
80289;PMS7003;69592;44.804;-0.550;2023-07-24T00:20:08;7.00;7.00;4.00
80289;PMS7003;69592;44.804;-0.550;2023-07-24T00:22:33;8.67;7.67;5.00
80289;PMS7003;69592;44.804;-0.550;2023-07-24T00:24:59;8.33;6.33;4.00
80289;PMS7003;69592;44.804;-0.550;2023-07-24T00:27:24;5.33;5.33;4.00
80289;PMS7003;69592;44.804;-0.550;2023-07-24T00:29:49;7.33;6.33;5.00
80289;PMS7003;69592;44.804;-0.550;2023-07-24T00:32:15;7.00;5.67;4.00
80289;PMS7003;69592;44.804;-0.550;2023-07-24T00:34:40;6.67;6.00;4.00
80289;PMS7003;69592;44.804;-0.550;2023-07-24T00:37:06;4.33;3.00;2.00
80289;PMS7003;69592;44.804;-0.550;2023-07-24T00:39:32;6.33;5.67;4.00
80289;PMS7003;69592;44.804;-0.550;2023-07-24T00:41:57;5.67;5.67;4.00
80289;PMS7003;69592;44.804;-0.550;2023-07-24T00:44:22;6.00;6.00;4.67
80289;PMS7003;69592;44.804;-0.550;2023-07-24T00:46:48;6.00;5.00;4.00
80289;PMS7003;69592;44.804;-0.550;2023-07-24T00:49:14;5.67;5.67;4.00
80289;PMS7003;69592;44.804;-0.550;2023-07-24T00:51:39;7.33;6.00;4.33
80289;PMS7003;69592;44.804;-0.550;2023-07-24T00:54:05;7.00;7.00;5.00
80289;PMS7003;69592;44.804;-0.550;2023-07-24T00:56:32;5.00;4.33;4.00
80289;PMS7003;69592;44.804;-0.550;2023-07-24T00:58:57;5.33;5.00;4.00
80289;PMS7003;69592;44.804;-0.550;2023-07-24T01:01:24;7.33;6.33;5.00
80289;PMS7003;69592;44.804;-0.550;2023-07-24T01:03:50;7.00;6.00;4.33
80289;PMS7003;69592;44.804;-0.550;2023-07-24T01:06:17;7.00;6.00;5.00
80289;PMS7003;69592;44.804;-0.550;2023-07-24T01:08:42;8.00;8.00;5.00
80289;PMS7003;69592;44.804;-0.550;2023-07-24T01:11:21;5.67;5.67;4.67
80289;PMS7003;69592;44.804;-0.550;2023-07-24T01:16:33;6.33;6.33;5.00
80289;PMS7003;69592;44.804;-0.550;2023-07-24T01:19:02;7.67;7.67;4.00
80289;PMS7003;69592;44.804;-0.550;2023-07-24T01:21:33;5.00;5.00;3.33
80289;PMS7003;69592;44.804;-0.550;2023-07-24T01:26:44;5.33;5.33;4.00
80289;PMS7003;69592;44.804;-0.550;2023-07-24T01:29:09;8.33;7.67;5.33
80289;PMS7003;69592;44.804;-0.550;2023-07-24T01:31:35;6.00;5.33;4.00
80289;PMS7003;69592;44.804;-0.550;2023-07-24T01:34:00;6.33;6.33;4.67
80289;PMS7003;69592;44.804;-0.550;2023-07-24T01:36:25;7.67;7.67;5.00
80289;PMS7003;69592;44.804;-0.550;2023-07-24T01:38:51;7.33;6.00;4.00
80289;PMS7003;69592;44.804;-0.550;2023-07-24T01:41:17;7.33;7.00;4.67
80289;PMS7003;69592;44.804;-0.550;2023-07-24T01:43:43;7.33;7.33;6.00
80289;PMS7003;69592;44.804;-0.550;2023-07-24T01:46:08;7.33;6.33;4.00
80289;PMS7003;69592;44.804;-0.550;2023-07-24T01:48:33;6.33;6.33;4.33
80289;PMS7003;69592;44.804;-0.550;2023-07-24T01:50:59;8.00;7.00;5.00
80289;PMS7003;69592;44.804;-0.550;2023-07-24T01:53:24;5.33;5.33;4.33
80289;PMS7003;69592;44.804;-0.550;2023-07-24T01:55:49;7.67;7.00;5.33
80289;PMS7003;69592;44.804;-0.550;2023-07-24T01:58:15;8.00;6.00;4.33
80289;PMS7003;69592;44.804;-0.550;2023-07-24T02:00:40;6.33;6.33;5.00
80289;PMS7003;69592;44.804;-0.550;2023-07-24T02:03:05;7.67;7.00;5.67
80289;PMS7003;69592;44.804;-0.550;2023-07-24T02:05:31;10.00;7.00;6.00
80289;PMS7003;69592;44.804;-0.550;2023-07-24T02:07:56;7.67;7.67;5.00
80289;PMS7003;69592;44.804;-0.550;2023-07-24T02:10:21;7.67;7.67;5.67
80289;PMS7003;69592;44.804;-0.550;2023-07-24T02:12:47;6.67;6.67;5.00
80289;PMS7003;69592;44.804;-0.550;2023-07-24T02:15:12;8.00;6.00;5.00
80289;PMS7003;69592;44.804;-0.550;2023-07-24T02:17:38;8.67;7.00;5.00
80289;PMS7003;69592;44.804;-0.550;2023-07-24T02:20:04;7.00;7.00;5.00
80289;PMS7003;69592;44.804;-0.550;2023-07-24T02:22:30;8.33;7.33;4.33
80289;PMS7003;69592;44.804;-0.550;2023-07-24T02:24:55;8.00;7.00;5.67
80289;PMS7003;69592;44.804;-0.550;2023-07-24T02:27:24;6.00;6.00;4.33
80289;PMS7003;69592;44.804;-0.550;2023-07-24T02:29:51;9.00;8.00;6.00
80289;PMS7003;69592;44.804;-0.550;2023-07-24T02:32:17;12.33;11.33;7.00
80289;PMS7003;69592;44.804;-0.550;2023-07-24T02:34:42;4.00;4.00;3.00
80289;PMS7003;69592;44.804;-0.550;2023-07-24T02:37:08;8.33;7.00;6.00
80289;PMS7003;69592;44.804;-0.550;2023-07-24T02:39:33;10.00;9.00;6.00
80289;PMS7003;69592;44.804;-0.550;2023-07-24T02:41:58;9.00;8.00;6.00
80289;PMS7003;69592;44.804;-0.550;2023-07-24T02:44:24;8.00;8.00;5.00
80289;PMS7003;69592;44.804;-0.550;2023-07-24T02:46:49;8.00;8.00;6.00
80289;PMS7003;69592;44.804;-0.550;2023-07-24T02:49:14;7.00;6.67;5.00
80289;PMS7003;69592;44.804;-0.550;2023-07-24T02:51:40;11.33;8.67;5.33
80289;PMS7003;69592;44.804;-0.550;2023-07-24T02:54:05;9.00;8.33;6.33
80289;PMS7003;69592;44.804;-0.550;2023-07-24T02:56:31;7.33;7.00;5.00
80289;PMS7003;69592;44.804;-0.550;2023-07-24T02:58:56;7.00;7.00;5.00
80289;PMS7003;69592;44.804;-0.550;2023-07-24T03:01:22;8.33;8.33;7.00
80289;PMS7003;69592;44.804;-0.550;2023-07-24T03:03:47;8.67;6.00;5.00
80289;PMS7003;69592;44.804;-0.550;2023-07-24T03:06:14;7.33;7.33;6.33
80289;PMS7003;69592;44.804;-0.550;2023-07-24T03:08:39;8.67;8.33;5.67
80289;PMS7003;69592;44.804;-0.550;2023-07-24T03:11:05;8.67;8.67;6.00
80289;PMS7003;69592;44.804;-0.550;2023-07-24T03:13:31;9.00;8.00;5.33
80289;PMS7003;69592;44.804;-0.550;2023-07-24T03:15:57;7.33;7.33;5.67
80289;PMS7003;69592;44.804;-0.550;2023-07-24T03:18:23;7.33;7.33;5.00
80289;PMS7003;69592;44.804;-0.550;2023-07-24T03:20:49;9.00;9.00;6.00
80289;PMS7003;69592;44.804;-0.550;2023-07-24T03:23:14;6.33;6.33;5.00
80289;PMS7003;69592;44.804;-0.550;2023-07-24T03:25:40;7.33;7.33;5.33
80289;PMS7003;69592;44.804;-0.550;2023-07-24T03:28:05;7.00;7.00;5.33
80289;PMS7003;69592;44.804;-0.550;2023-07-24T03:30:31;8.00;8.00;5.67
80289;PMS7003;69592;44.804;-0.550;2023-07-24T03:32:56;9.67;7.67;5.00
80289;PMS7003;69592;44.804;-0.550;2023-07-24T03:35:22;7.00;7.00;6.00
80289;PMS7003;69592;44.804;-0.550;2023-07-24T03:37:48;10.67;10.67;6.67
80289;PMS7003;69592;44.804;-0.550;2023-07-24T03:40:13;8.33;7.33;5.00
80289;PMS7003;69592;44.804;-0.550;2023-07-24T03:42:39;9.33;8.00;6.00
80289;PMS7003;69592;44.804;-0.550;2023-07-24T03:45:05;12.00;10.67;6.33
80289;PMS7003;69592;44.804;-0.550;2023-07-24T03:47:31;10.67;10.67;7.00
80289;PMS7003;69592;44.804;-0.550;2023-07-24T03:49:57;10.00;9.00;6.00
80289;PMS7003;69592;44.804;-0.550;2023-07-24T03:52:22;9.00;8.00;6.00
80289;PMS7003;69592;44.804;-0.550;2023-07-24T03:54:47;8.67;8.67;6.00
80289;PMS7003;69592;44.804;-0.550;2023-07-24T03:57:13;8.00;8.00;6.00
80289;PMS7003;69592;44.804;-0.550;2023-07-24T03:59:38;9.00;9.00;7.00
80289;PMS7003;69592;44.804;-0.550;2023-07-24T04:02:04;9.00;9.00;6.67
80289;PMS7003;69592;44.804;-0.550;2023-07-24T04:04:29;8.00;8.00;7.00
80289;PMS7003;69592;44.804;-0.550;2023-07-24T04:06:55;8.00;8.00;5.33
80289;PMS7003;69592;44.804;-0.550;2023-07-24T04:09:20;9.00;7.67;5.33
80289;PMS7003;69592;44.804;-0.550;2023-07-24T04:11:45;6.67;6.67;4.00
80289;PMS7003;69592;44.804;-0.550;2023-07-24T04:14:11;9.33;8.67;6.00
80289;PMS7003;69592;44.804;-0.550;2023-07-24T04:16:36;10.67;10.00;7.00
80289;PMS7003;69592;44.804;-0.550;2023-07-24T04:19:02;7.67;7.67;6.00
80289;PMS7003;69592;44.804;-0.550;2023-07-24T04:21:27;8.00;8.00;4.33
80289;PMS7003;69592;44.804;-0.550;2023-07-24T04:23:53;10.67;9.67;6.67
80289;PMS7003;69592;44.804;-0.550;2023-07-24T04:26:18;10.00;9.00;7.00
80289;PMS7003;69592;44.804;-0.550;2023-07-24T04:28:44;6.67;6.67;5.33
80289;PMS7003;69592;44.804;-0.550;2023-07-24T04:31:09;9.33;8.00;5.67
80289;PMS7003;69592;44.804;-0.550;2023-07-24T04:33:34;8.33;8.33;5.33
80289;PMS7003;69592;44.804;-0.550;2023-07-24T04:36:00;10.33;9.00;7.00
80289;PMS7003;69592;44.804;-0.550;2023-07-24T04:38:25;9.33;9.33;6.33
80289;PMS7003;69592;44.804;-0.550;2023-07-24T04:40:51;8.00;7.00;6.00
80289;PMS7003;69592;44.804;-0.550;2023-07-24T04:43:17;11.67;9.00;6.00
80289;PMS7003;69592;44.804;-0.550;2023-07-24T04:45:42;13.00;9.00;7.00
80289;PMS7003;69592;44.804;-0.550;2023-07-24T04:48:07;8.00;7.33;6.00
80289;PMS7003;69592;44.804;-0.550;2023-07-24T04:50:33;10.33;9.00;6.00
80289;PMS7003;69592;44.804;-0.550;2023-07-24T04:52:58;9.00;9.00;6.00
80289;PMS7003;69592;44.804;-0.550;2023-07-24T04:55:24;10.00;8.67;6.67
80289;PMS7003;69592;44.804;-0.550;2023-07-24T04:57:49;10.00;7.67;5.00
80289;PMS7003;69592;44.804;-0.550;2023-07-24T05:00:15;9.00;7.67;6.00
80289;PMS7003;69592;44.804;-0.550;2023-07-24T05:02:40;9.00;9.00;6.67
80289;PMS7003;69592;44.804;-0.550;2023-07-24T05:05:06;8.33;8.00;6.33
80289;PMS7003;69592;44.804;-0.550;2023-07-24T05:07:31;12.00;10.00;7.33
80289;PMS7003;69592;44.804;-0.550;2023-07-24T05:09:57;10.00;10.00;7.00
80289;PMS7003;69592;44.804;-0.550;2023-07-24T05:12:22;7.00;7.00;5.00
80289;PMS7003;69592;44.804;-0.550;2023-07-24T05:14:48;9.33;7.33;5.33
80289;PMS7003;69592;44.804;-0.550;2023-07-24T05:17:13;8.67;6.67;5.33
80289;PMS7003;69592;44.804;-0.550;2023-07-24T05:19:38;7.33;6.67;4.67
80289;PMS7003;69592;44.804;-0.550;2023-07-24T05:22:04;8.00;8.00;5.67
80289;PMS7003;69592;44.804;-0.550;2023-07-24T05:24:29;7.00;7.00;6.00
80289;PMS7003;69592;44.804;-0.550;2023-07-24T05:26:55;9.00;7.67;6.00
80289;PMS7003;69592;44.804;-0.550;2023-07-24T05:29:20;8.00;8.00;5.00
80289;PMS7003;69592;44.804;-0.550;2023-07-24T05:31:46;6.00;6.00;4.33
80289;PMS7003;69592;44.804;-0.550;2023-07-24T05:34:12;6.67;6.33;5.33
80289;PMS7003;69592;44.804;-0.550;2023-07-24T05:36:37;7.33;7.33;5.00
80289;PMS7003;69592;44.804;-0.550;2023-07-24T05:39:03;6.33;5.67;4.00
80289;PMS7003;69592;44.804;-0.550;2023-07-24T05:41:28;4.00;4.00;3.33
80289;PMS7003;69592;44.804;-0.550;2023-07-24T05:43:53;4.33;4.33;3.00
80289;PMS7003;69592;44.804;-0.550;2023-07-24T05:46:20;2.00;2.00;2.00
80289;PMS7003;69592;44.804;-0.550;2023-07-24T05:48:45;2.33;2.33;2.00
80289;PMS7003;69592;44.804;-0.550;2023-07-24T05:51:11;1.33;1.33;1.00
80289;PMS7003;69592;44.804;-0.550;2023-07-24T05:53:36;2.00;2.00;2.00
80289;PMS7003;69592;44.804;-0.550;2023-07-24T05:56:02;1.33;1.00;1.00
80289;PMS7003;69592;44.804;-0.550;2023-07-24T05:58:28;1.00;1.00;1.00
80289;PMS7003;69592;44.804;-0.550;2023-07-24T06:00:53;3.00;2.67;2.00
80289;PMS7003;69592;44.804;-0.550;2023-07-24T06:03:20;2.67;1.67;1.00
80289;PMS7003;69592;44.804;-0.550;2023-07-24T06:05:50;1.00;1.00;1.00
80289;PMS7003;69592;44.804;-0.550;2023-07-24T06:08:17;2.67;1.00;1.00
80289;PMS7003;69592;44.804;-0.550;2023-07-24T06:10:43;0.50;0.00;0.00
80289;PMS7003;69592;44.804;-0.550;2023-07-24T06:13:08;2.50;2.00;2.00
80289;PMS7003;69592;44.804;-0.550;2023-07-24T06:15:33;1.50;1.50;1.00
80289;PMS7003;69592;44.804;-0.550;2023-07-24T06:17:59;1.00;1.00;1.00
80289;PMS7003;69592;44.804;-0.550;2023-07-24T06:20:24;1.33;1.33;1.00
80289;PMS7003;69592;44.804;-0.550;2023-07-24T06:22:49;2.00;2.00;1.00
80289;PMS7003;69592;44.804;-0.550;2023-07-24T06:25:15;3.00;3.00;1.33
80289;PMS7003;69592;44.804;-0.550;2023-07-24T06:27:40;1.00;1.00;1.00
80289;PMS7003;69592;44.804;-0.550;2023-07-24T06:30:05;1.00;0.00;0.00
80289;PMS7003;69592;44.804;-0.550;2023-07-24T06:32:31;3.00;1.00;1.00
80289;PMS7003;69592;44.804;-0.550;2023-07-24T06:34:57;1.00;1.00;0.33
80289;PMS7003;69592;44.804;-0.550;2023-07-24T06:37:22;1.00;1.00;0.75
80289;PMS7003;69592;44.804;-0.550;2023-07-24T06:39:47;2.33;1.00;1.00
80289;PMS7003;69592;44.804;-0.550;2023-07-24T06:42:13;1.00;1.00;1.00
80289;PMS7003;69592;44.804;-0.550;2023-07-24T06:44:38;1.00;1.00;0.33
80289;PMS7003;69592;44.804;-0.550;2023-07-24T06:47:03;0.75;0.75;0.00
80289;PMS7003;69592;44.804;-0.550;2023-07-24T06:49:29;1.00;1.00;0.00
80289;PMS7003;69592;44.804;-0.550;2023-07-24T06:51:54;2.67;1.00;1.00
80289;PMS7003;69592;44.804;-0.550;2023-07-24T06:54:19;1.00;1.00;1.00
80289;PMS7003;69592;44.804;-0.550;2023-07-24T06:56:44;1.00;1.00;1.00
80289;PMS7003;69592;44.804;-0.550;2023-07-24T06:59:10;0.00;0.00;0.00
80289;PMS7003;69592;44.804;-0.550;2023-07-24T07:01:35;1.33;1.33;0.67
80289;PMS7003;69592;44.804;-0.550;2023-07-24T07:04:00;1.00;1.00;1.00
80289;PMS7003;69592;44.804;-0.550;2023-07-24T07:06:26;1.00;1.00;0.33
80289;PMS7003;69592;44.804;-0.550;2023-07-24T07:08:51;2.00;2.00;2.00
80289;PMS7003;69592;44.804;-0.550;2023-07-24T07:11:17;3.00;2.00;1.33
80289;PMS7003;69592;44.804;-0.550;2023-07-24T07:13:42;1.00;1.00;1.00
80289;PMS7003;69592;44.804;-0.550;2023-07-24T07:16:08;2.33;1.67;1.00
80289;PMS7003;69592;44.804;-0.550;2023-07-24T07:18:33;2.00;2.00;1.00
80289;PMS7003;69592;44.804;-0.550;2023-07-24T07:20:58;2.25;1.00;1.00
80289;PMS7003;69592;44.804;-0.550;2023-07-24T07:23:24;1.00;1.00;1.00
80289;PMS7003;69592;44.804;-0.550;2023-07-24T07:25:50;2.00;2.00;1.25
80289;PMS7003;69592;44.804;-0.550;2023-07-24T07:28:16;2.00;2.00;1.00
80289;PMS7003;69592;44.804;-0.550;2023-07-24T07:30:42;1.00;1.00;1.00
80289;PMS7003;69592;44.804;-0.550;2023-07-24T07:33:08;1.25;1.00;1.00
80289;PMS7003;69592;44.804;-0.550;2023-07-24T07:35:34;3.75;2.00;1.25
80289;PMS7003;69592;44.804;-0.550;2023-07-24T07:38:00;3.00;2.00;2.00
80289;PMS7003;69592;44.804;-0.550;2023-07-24T07:40:27;1.00;1.00;0.75
80289;PMS7003;69592;44.804;-0.550;2023-07-24T07:42:56;2.00;2.00;1.00
80289;PMS7003;69592;44.804;-0.550;2023-07-24T07:45:22;1.00;1.00;1.00
80289;PMS7003;69592;44.804;-0.550;2023-07-24T07:47:48;2.25;0.50;0.00
80289;PMS7003;69592;44.804;-0.550;2023-07-24T07:50:14;0.75;0.75;0.25
80289;PMS7003;69592;44.804;-0.550;2023-07-24T07:52:39;1.00;1.00;0.67
80289;PMS7003;69592;44.804;-0.550;2023-07-24T07:55:05;2.25;1.75;1.00
80289;PMS7003;69592;44.804;-0.550;2023-07-24T07:57:31;3.25;1.00;1.00
80289;PMS7003;69592;44.804;-0.550;2023-07-24T08:00:01;1.00;1.00;1.00
80289;PMS7003;69592;44.804;-0.550;2023-07-24T08:02:27;2.33;1.00;1.00
80289;PMS7003;69592;44.804;-0.550;2023-07-24T08:04:52;3.00;2.00;1.00
80289;PMS7003;69592;44.804;-0.550;2023-07-24T08:07:18;1.00;1.00;0.00
80289;PMS7003;69592;44.804;-0.550;2023-07-24T08:09:45;0.25;0.25;0.25
80289;PMS7003;69592;44.804;-0.550;2023-07-24T08:12:10;1.00;1.00;0.00
80289;PMS7003;69592;44.804;-0.550;2023-07-24T08:14:36;2.00;0.75;0.75
80289;PMS7003;69592;44.804;-0.550;2023-07-24T08:17:01;1.00;1.00;1.00
80289;PMS7003;69592;44.804;-0.550;2023-07-24T08:19:30;2.33;1.00;1.00
80289;PMS7003;69592;44.804;-0.550;2023-07-24T08:21:58;1.00;1.00;0.00
80289;PMS7003;69592;44.804;-0.550;2023-07-24T08:24:23;1.00;1.00;0.75
80289;PMS7003;69592;44.804;-0.550;2023-07-24T08:26:49;0.50;0.50;0.00
80289;PMS7003;69592;44.804;-0.550;2023-07-24T08:29:14;2.00;2.00;2.00
80289;PMS7003;69592;44.804;-0.550;2023-07-24T08:31:40;1.00;1.00;1.00
80289;PMS7003;69592;44.804;-0.550;2023-07-24T08:34:05;1.25;1.00;0.75
80289;PMS7003;69592;44.804;-0.550;2023-07-24T08:36:31;1.00;1.00;1.00
80289;PMS7003;69592;44.804;-0.550;2023-07-24T08:38:56;2.00;2.00;1.50
80289;PMS7003;69592;44.804;-0.550;2023-07-24T08:41:22;3.50;2.00;1.25
80289;PMS7003;69592;44.804;-0.550;2023-07-24T08:43:47;1.75;1.75;1.25
80289;PMS7003;69592;44.804;-0.550;2023-07-24T08:46:14;1.25;1.00;1.00
80289;PMS7003;69592;44.804;-0.550;2023-07-24T08:48:41;1.50;1.50;1.00
80289;PMS7003;69592;44.804;-0.550;2023-07-24T08:51:08;2.00;2.00;1.00
80289;PMS7003;69592;44.804;-0.550;2023-07-24T08:53:36;2.75;2.00;1.00
80289;PMS7003;69592;44.804;-0.550;2023-07-24T08:56:02;1.00;1.00;1.00
80289;PMS7003;69592;44.804;-0.550;2023-07-24T08:58:31;3.00;1.00;1.00
80289;PMS7003;69592;44.804;-0.550;2023-07-24T09:00:57;3.00;1.75;1.25
80289;PMS7003;69592;44.804;-0.550;2023-07-24T09:03:23;2.75;2.75;2.00
80289;PMS7003;69592;44.804;-0.550;2023-07-24T09:05:49;1.75;1.75;1.50
80289;PMS7003;69592;44.804;-0.550;2023-07-24T09:08:15;3.00;2.00;1.75
80289;PMS7003;69592;44.804;-0.550;2023-07-24T09:10:40;2.75;1.50;1.00
80289;PMS7003;69592;44.804;-0.550;2023-07-24T09:13:06;2.25;2.25;2.00
80289;PMS7003;69592;44.804;-0.550;2023-07-24T09:15:41;2.25;2.25;1.50
80289;PMS7003;69592;44.804;-0.550;2023-07-24T09:18:07;1.75;1.75;1.25
80289;PMS7003;69592;44.804;-0.550;2023-07-24T09:20:40;2.50;2.00;1.25
80289;PMS7003;69592;44.804;-0.550;2023-07-24T09:23:07;0.00;0.00;0.00
80289;PMS7003;69592;44.804;-0.550;2023-07-24T09:25:34;3.00;1.75;1.25
80289;PMS7003;69592;44.804;-0.550;2023-07-24T09:28:01;2.00;2.00;1.00
80289;PMS7003;69592;44.804;-0.550;2023-07-24T09:30:33;4.00;2.25;2.00
80289;PMS7003;69592;44.804;-0.550;2023-07-24T09:32:59;2.75;1.50;0.50
80289;PMS7003;69592;44.804;-0.550;2023-07-24T09:35:24;3.25;1.75;1.50
80289;PMS7003;69592;44.804;-0.550;2023-07-24T09:38:01;3.25;3.25;2.00
80289;PMS7003;69592;44.804;-0.550;2023-07-24T09:40:27;2.00;2.00;1.50
80289;PMS7003;69592;44.804;-0.550;2023-07-24T09:42:53;1.50;0.50;0.00
80289;PMS7003;69592;44.804;-0.550;2023-07-24T09:45:18;3.25;3.25;1.00
80289;PMS7003;69592;44.804;-0.550;2023-07-24T09:47:43;3.00;3.00;2.00
80289;PMS7003;69592;44.804;-0.550;2023-07-24T09:50:10;1.25;1.25;1.00
80289;PMS7003;69592;44.804;-0.550;2023-07-24T09:52:36;1.50;1.00;0.75
80289;PMS7003;69592;44.804;-0.550;2023-07-24T09:57:46;3.00;1.75;1.00
80289;PMS7003;69592;44.804;-0.550;2023-07-24T10:00:13;2.25;1.75;1.50
80289;PMS7003;69592;44.804;-0.550;2023-07-24T10:02:39;2.00;2.00;1.00
80289;PMS7003;69592;44.804;-0.550;2023-07-24T10:05:06;3.75;3.75;2.75
80289;PMS7003;69592;44.804;-0.550;2023-07-24T10:07:32;2.25;2.00;1.75
80289;PMS7003;69592;44.804;-0.550;2023-07-24T10:09:57;2.50;2.50;1.75
80289;PMS7003;69592;44.804;-0.550;2023-07-24T10:12:23;4.50;2.75;1.75
80289;PMS7003;69592;44.804;-0.550;2023-07-24T10:14:52;1.75;1.75;1.75
80289;PMS7003;69592;44.804;-0.550;2023-07-24T10:17:35;3.50;2.75;1.75
80289;PMS7003;69592;44.804;-0.550;2023-07-24T10:20:05;2.40;2.40;2.00
80289;PMS7003;69592;44.804;-0.550;2023-07-24T10:22:32;1.75;1.75;1.75
80289;PMS7003;69592;44.804;-0.550;2023-07-24T10:24:58;6.00;4.75;3.25
80289;PMS7003;69592;44.804;-0.550;2023-07-24T10:27:24;3.50;2.75;1.75
80289;PMS7003;69592;44.804;-0.550;2023-07-24T10:29:59;3.00;2.25;1.50
80289;PMS7003;69592;44.804;-0.550;2023-07-24T10:32:29;2.50;2.50;2.00
80289;PMS7003;69592;44.804;-0.550;2023-07-24T10:34:59;3.50;2.25;1.00
80289;PMS7003;69592;44.804;-0.550;2023-07-24T10:37:31;2.40;2.40;1.40
80289;PMS7003;69592;44.804;-0.550;2023-07-24T10:39:58;1.00;1.00;1.00
80289;PMS7003;69592;44.804;-0.550;2023-07-24T10:42:23;2.00;1.25;1.00
80289;PMS7003;69592;44.804;-0.550;2023-07-24T10:44:49;4.75;2.50;1.75
80289;PMS7003;69592;44.804;-0.550;2023-07-24T10:47:14;3.75;2.75;2.00
80289;PMS7003;69592;44.804;-0.550;2023-07-24T10:49:42;3.50;3.50;2.00
80289;PMS7003;69592;44.804;-0.550;2023-07-24T10:52:14;3.50;3.00;2.00
80289;PMS7003;69592;44.804;-0.550;2023-07-24T10:54:39;2.00;2.00;2.00
80289;PMS7003;69592;44.804;-0.550;2023-07-24T10:57:05;3.00;2.00;1.50
80289;PMS7003;69592;44.804;-0.550;2023-07-24T10:59:39;2.00;2.00;1.50
80289;PMS7003;69592;44.804;-0.550;2023-07-24T11:02:05;2.00;2.00;1.75
80289;PMS7003;69592;44.804;-0.550;2023-07-24T11:04:32;2.00;2.00;2.00
80289;PMS7003;69592;44.804;-0.550;2023-07-24T11:06:59;2.60;1.60;1.00
80289;PMS7003;69592;44.804;-0.550;2023-07-24T11:09:38;2.80;1.80;1.40
80289;PMS7003;69592;44.804;-0.550;2023-07-24T11:12:14;2.75;2.75;2.00
80289;PMS7003;69592;44.804;-0.550;2023-07-24T11:14:50;3.00;2.00;1.00
80289;PMS7003;69592;44.804;-0.550;2023-07-24T11:17:19;2.60;1.40;1.00
80289;PMS7003;69592;44.804;-0.550;2023-07-24T11:19:44;2.25;2.00;2.00
80289;PMS7003;69592;44.804;-0.550;2023-07-24T11:22:10;2.00;2.00;1.00
80289;PMS7003;69592;44.804;-0.550;2023-07-24T11:24:45;2.00;2.00;2.00
80289;PMS7003;69592;44.804;-0.550;2023-07-24T11:27:12;2.40;2.40;2.00
80289;PMS7003;69592;44.804;-0.550;2023-07-24T11:29:39;1.00;1.00;0.60
80289;PMS7003;69592;44.804;-0.550;2023-07-24T11:32:04;2.00;2.00;1.75
80289;PMS7003;69592;44.804;-0.550;2023-07-24T11:34:30;4.00;3.00;2.00
80289;PMS7003;69592;44.804;-0.550;2023-07-24T11:36:55;4.50;3.75;2.00
80289;PMS7003;69592;44.804;-0.550;2023-07-24T11:39:22;2.75;2.00;1.00
80289;PMS7003;69592;44.804;-0.550;2023-07-24T11:41:48;5.00;3.00;3.00
80289;PMS7003;69592;44.804;-0.550;2023-07-24T11:44:13;2.00;2.00;1.00
80289;PMS7003;69592;44.804;-0.550;2023-07-24T11:46:41;4.00;3.00;2.00
80289;PMS7003;69592;44.804;-0.550;2023-07-24T11:49:08;3.00;2.60;1.80
80289;PMS7003;69592;44.804;-0.550;2023-07-24T11:51:36;4.75;3.00;2.00
80289;PMS7003;69592;44.804;-0.550;2023-07-24T11:54:08;2.00;2.00;1.20
80289;PMS7003;69592;44.804;-0.550;2023-07-24T11:56:36;2.80;2.80;2.00
80289;PMS7003;69592;44.804;-0.550;2023-07-24T11:59:08;1.25;1.25;1.00
80289;PMS7003;69592;44.804;-0.550;2023-07-24T12:01:37;1.80;1.40;1.00
80289;PMS7003;69592;44.804;-0.550;2023-07-24T12:04:03;1.00;1.00;1.00
80289;PMS7003;69592;44.804;-0.550;2023-07-24T12:06:30;3.25;2.00;1.00
80289;PMS7003;69592;44.804;-0.550;2023-07-24T12:09:02;2.00;2.00;1.60
80289;PMS7003;69592;44.804;-0.550;2023-07-24T12:11:30;2.00;2.00;1.80
80289;PMS7003;69592;44.804;-0.550;2023-07-24T12:13:56;2.00;2.00;1.80
80289;PMS7003;69592;44.804;-0.550;2023-07-24T12:16:22;5.75;2.00;2.00
80289;PMS7003;69592;44.804;-0.550;2023-07-24T12:18:47;2.00;2.00;2.00
80289;PMS7003;69592;44.804;-0.550;2023-07-24T12:21:13;2.25;2.25;1.50
80289;PMS7003;69592;44.804;-0.550;2023-07-24T12:23:38;1.50;1.50;1.00
80289;PMS7003;69592;44.804;-0.550;2023-07-24T12:26:04;1.50;1.50;1.00
80289;PMS7003;69592;44.804;-0.550;2023-07-24T12:28:29;0.00;0.00;0.00
80289;PMS7003;69592;44.804;-0.550;2023-07-24T12:30:55;2.50;2.00;1.25
80289;PMS7003;69592;44.804;-0.550;2023-07-24T12:33:20;2.00;2.00;1.00
80289;PMS7003;69592;44.804;-0.550;2023-07-24T12:35:48;2.00;2.00;1.00
80289;PMS7003;69592;44.804;-0.550;2023-07-24T12:38:17;2.00;2.00;1.00
80289;PMS7003;69592;44.804;-0.550;2023-07-24T12:40:43;1.25;1.25;1.00
80289;PMS7003;69592;44.804;-0.550;2023-07-24T12:43:08;3.00;2.00;1.00
80289;PMS7003;69592;44.804;-0.550;2023-07-24T12:45:34;1.75;1.25;1.00
80289;PMS7003;69592;44.804;-0.550;2023-07-24T12:47:59;2.00;2.00;2.00
80289;PMS7003;69592;44.804;-0.550;2023-07-24T12:50:25;1.00;1.00;0.50
80289;PMS7003;69592;44.804;-0.550;2023-07-24T12:52:50;2.50;2.50;1.50
80289;PMS7003;69592;44.804;-0.550;2023-07-24T12:55:15;1.25;1.25;0.50
80289;PMS7003;69592;44.804;-0.550;2023-07-24T12:57:41;1.00;1.00;0.00
80289;PMS7003;69592;44.804;-0.550;2023-07-24T13:00:06;1.00;1.00;1.00
80289;PMS7003;69592;44.804;-0.550;2023-07-24T13:02:34;1.20;1.20;1.00
80289;PMS7003;69592;44.804;-0.550;2023-07-24T13:04:59;1.75;1.00;0.50
80289;PMS7003;69592;44.804;-0.550;2023-07-24T13:07:25;0.50;0.00;0.00
80289;PMS7003;69592;44.804;-0.550;2023-07-24T13:09:50;0.75;0.75;0.00
80289;PMS7003;69592;44.804;-0.550;2023-07-24T13:12:15;1.75;1.75;1.00
80289;PMS7003;69592;44.804;-0.550;2023-07-24T13:14:41;2.25;0.75;0.75
80289;PMS7003;69592;44.804;-0.550;2023-07-24T13:17:07;2.00;0.40;0.20
80289;PMS7003;69592;44.804;-0.550;2023-07-24T13:19:33;1.25;1.25;0.50
80289;PMS7003;69592;44.804;-0.550;2023-07-24T13:21:58;1.00;1.00;1.00
80289;PMS7003;69592;44.804;-0.550;2023-07-24T13:24:24;0.75;0.75;0.50
80289;PMS7003;69592;44.804;-0.550;2023-07-24T13:26:49;2.50;2.50;2.50
80289;PMS7003;69592;44.804;-0.550;2023-07-24T13:29:14;1.75;1.75;1.00
80289;PMS7003;69592;44.804;-0.550;2023-07-24T13:31:40;1.00;1.00;1.00
80289;PMS7003;69592;44.804;-0.550;2023-07-24T13:34:05;3.25;1.00;1.00
80289;PMS7003;69592;44.804;-0.550;2023-07-24T13:36:32;2.00;2.00;1.00
80289;PMS7003;69592;44.804;-0.550;2023-07-24T13:38:57;1.00;1.00;1.00
80289;PMS7003;69592;44.804;-0.550;2023-07-24T13:41:23;1.50;1.00;0.75
80289;PMS7003;69592;44.804;-0.550;2023-07-24T13:43:48;1.25;1.25;0.75
80289;PMS7003;69592;44.804;-0.550;2023-07-24T13:46:13;1.00;1.00;1.00
80289;PMS7003;69592;44.804;-0.550;2023-07-24T13:48:39;1.75;1.75;1.00
80289;PMS7003;69592;44.804;-0.550;2023-07-24T13:51:04;1.00;1.00;0.75
80289;PMS7003;69592;44.804;-0.550;2023-07-24T13:53:30;1.75;1.75;1.25
80289;PMS7003;69592;44.804;-0.550;2023-07-24T13:55:55;4.00;3.00;1.00
80289;PMS7003;69592;44.804;-0.550;2023-07-24T13:58:20;2.00;1.25;1.25
80289;PMS7003;69592;44.804;-0.550;2023-07-24T14:00:46;5.75;1.50;1.00
80289;PMS7003;69592;44.804;-0.550;2023-07-24T14:03:11;2.00;2.00;1.00
80289;PMS7003;69592;44.804;-0.550;2023-07-24T14:05:37;1.00;1.00;1.00
80289;PMS7003;69592;44.804;-0.550;2023-07-24T14:08:02;1.25;1.25;1.00
80289;PMS7003;69592;44.804;-0.550;2023-07-24T14:10:28;2.75;2.75;2.00